MAYO2: W. D. Mayo Lock And Dam (L&D 14)

Data processed at Thu Dec 07 2017 23:30


All information presented herein is the property of the government of the United States of America and may be revised or deleted at any time without prior notice.
Dissemination of this information without the expressed written consent of the Public Affairs Office, Tulsa District U.S. Army Corps of Engineers is strictly prohibited.
These data are gathered electronically and, as presented, have not undergone any form of quality control. These data are not guaranteed to be valid or correct.
Go to home page.
Go to station list.

Upstream stations:

Downstream station:
Previous Day
Next Day
Current Day
    
SHEF ID:       MAYO2     W. D. Mayo Lock And Dam (L&D 14)
STATION TYPE:  NAVIGATION LOCK
Normal Pool:  Bottom =   411.00, Top =   413.00

               PRECIP ELEVATION   STORAGE   TW-ELEV LOCK-ELEV    INFLOW   RELEASE  AIR-TEMP  WIND-DIRWIND-SPEED REL-HUMID SOLAR-RAD   VOLTAGE  BAT-LOAD
                   in        ft     ac-ft        ft        ft       cfs       cfs         F       deg       mph         %      W/m2      volt      volt
              Ccp-Rev   Ccp-Rev   Ccp-Rev   Ccp-Rev   Ccp-Rev  Regi-Rev  Regi-Rev   Ccp-Rev   Ccp-Rev   Ccp-Rev   Ccp-Rev   Ccp-Rev   Ccp-Rev   Ccp-Rev
(US/Central)
12/05 00:00      0.00    412.13     14368    391.67    412.22      1720       836     56.19    328.20     11.50     44.92      0.00     13.59     13.44
12/05 01:00      0.00    412.14     14383    391.47    391.63       981       833     53.42    334.00      9.70     42.59      0.00     13.59     13.44
12/05 02:00      0.00    412.17     14429    391.88    392.15       999       834     50.97    335.60      9.00     42.10      0.00     13.59     13.44
12/05 03:00      0.00    412.16     14414    391.96    392.11      2316       834     48.87    314.30      6.00     46.03      0.00     13.59     13.44
12/05 04:00      0.00    412.17     14429    391.71    391.82      2695       834     47.89    327.60      8.10     49.67      0.00     13.59     13.44
12/05 05:00      0.00    412.53     14980    391.55    391.95      2891       838     46.27    313.70      7.90     51.26      0.00     13.58     13.44
12/05 06:00      0.00    412.64     15151    392.58    412.82      3196       844     45.21    322.00     10.20     53.30      0.00     13.57     13.44
12/05 07:00      0.00    412.72     15276    394.03    394.19      7907       846     43.86    326.80     11.20     54.06      0.00     13.57     13.44
12/05 08:00      0.00    412.79     15386    393.91    412.87     12375       846     43.29    323.90      9.10     55.88      1.90     13.58     13.44
12/05 09:00      0.00    412.57     15042    393.67    412.69     16134     28732     42.40    319.60      7.90     57.15     36.80     13.58     13.44
12/05 10:00      0.00    412.63     15136    391.68    412.37     18538     28728     41.56    323.90      8.70     55.53    119.10     13.58     13.44
12/05 11:00      0.00    412.26     14565    391.48    412.31     18109     28608     42.13    325.80      7.60     49.59    136.20     13.58     13.44
12/05 12:00      0.00    412.49     14919    391.75    412.27     13201     10103     42.60    331.40      9.00     41.87    118.80     13.57     13.44
12/05 13:00      0.00    412.53     14980    391.59    412.23      7314         0     42.87    329.00      8.50     38.21    190.70     13.57     13.44
12/05 14:00      0.00    412.45     14857    391.40    412.19      2973         0     44.13    332.20      8.00     34.49    287.10     13.57     13.44
12/05 15:00      0.00    412.40     14780    391.59    412.17        97         0     45.10    333.10      7.20     31.32    147.10     13.56     13.44
12/05 16:00      0.00    412.54     14996    391.63    412.14       103         0     45.50    324.30      4.90     31.03    110.90     13.57     13.44
12/05 17:00      0.00    412.76     15339    391.43    412.14       112         0     43.83    275.20      2.50     30.79     22.70     13.56     13.44
12/05 18:00      0.00    412.49     14919    391.45    412.13       153         0     41.11    222.80      1.60     36.44      0.00     13.56     13.44
12/05 19:00      0.00    412.77     15355    391.66    412.75       278         0     38.03    198.60      1.60     50.23      0.00     13.55     13.44
12/05 20:00      0.00    412.15     14398    392.26    412.67      2571         0     38.46    215.40      2.40     47.93      0.00     13.55     13.44
12/05 21:00      0.00    412.82     15434    392.25    412.62      4625         0     37.47    216.10      2.10     50.20      0.00     13.57     13.44
12/05 22:00      0.00    412.57     15042    392.96    412.51      8858     11842     36.32    224.10      1.30     51.63      0.00     13.57     13.44
12/05 23:00      0.00    412.49     14919    392.78    412.48     13072     11831     34.61    185.20      0.40     61.28      0.00     13.57     13.44